Terminal Aerodrome Forecast
Issued by NWS Charleston, WV

Current Version | Previous Version | Graphics & Text | Print | Product List | Glossary On
Versions: 1 2 3 4 5 6 7 8 9 10 11 12 13 14 15 16 17 18 19 20 21 22 23
853
FTUS41 KRLX 270841 AAC
TAFBKW
TAF AMD
KBKW 270841Z 2709/2806 VRB03KT P6SM BKN070
     FM271400 30007KT P6SM BKN090
     FM271600 31009G15KT P6SM BKN050
     FM271900 30010G16KT P6SM SCT050
     FM272200 31008KT P6SM SCT060
     FM280200 35004KT P6SM FEW250=

USA.gov is the U.S. government's official web portal to all federal, state and local government web resources and services.